createdAt,value
2023-03-20T00:02:27.022Z,11.20
2023-03-20T00:04:55.261Z,11.40
2023-03-20T00:07:23.444Z,11.50
2023-03-20T00:09:51.756Z,11.30
2023-03-20T00:12:26.171Z,11.30
2023-03-20T00:14:54.711Z,11.20
2023-03-20T00:17:24.307Z,11.30
2023-03-20T00:19:52.481Z,11.20
2023-03-20T00:22:20.713Z,11.10
2023-03-20T00:24:48.932Z,11.10
2023-03-20T00:27:18.720Z,11.10
2023-03-20T00:29:47.637Z,11.20
2023-03-20T00:32:16.526Z,11.10
2023-03-20T00:34:46.387Z,11.20
2023-03-20T00:37:14.692Z,11.10
2023-03-20T00:39:43.086Z,11.20
2023-03-20T00:42:22.018Z,11.10
2023-03-20T00:44:54.393Z,11.10
2023-03-20T00:47:25.308Z,11.20
2023-03-20T00:49:56.424Z,11.30
2023-03-20T00:52:25.891Z,11.20
2023-03-20T00:54:54.180Z,11.10
2023-03-20T00:57:27.769Z,11.10
2023-03-20T01:00:01.301Z,11.10
2023-03-20T01:02:31.167Z,11.00
2023-03-20T01:05:01.657Z,11.00
2023-03-20T01:07:29.892Z,10.90
2023-03-20T01:09:58.042Z,10.90
2023-03-20T01:12:26.537Z,10.70
2023-03-20T01:14:58.549Z,10.70
2023-03-20T01:17:29.273Z,10.60
2023-03-20T01:19:57.598Z,10.80
2023-03-20T01:22:27.196Z,10.70
2023-03-20T01:24:55.374Z,10.70
2023-03-20T01:27:23.681Z,10.80
2023-03-20T01:29:51.946Z,10.60
2023-03-20T01:32:21.329Z,10.50
2023-03-20T01:34:49.546Z,10.40
2023-03-20T01:37:24.585Z,10.50
2023-03-20T01:39:54.814Z,10.40
2023-03-20T01:42:23.009Z,10.50
2023-03-20T01:44:51.709Z,10.50
2023-03-20T01:47:23.477Z,10.50
2023-03-20T01:50:22.508Z,10.40
2023-03-20T01:52:56.965Z,10.50
2023-03-20T01:55:27.564Z,10.50
2023-03-20T01:57:58.514Z,10.50
2023-03-20T02:00:27.182Z,10.50
2023-03-20T02:02:56.340Z,10.60
2023-03-20T02:05:25.323Z,10.40
2023-03-20T02:08:09.423Z,10.40
2023-03-20T02:10:40.784Z,10.40
2023-03-20T02:13:10.919Z,10.40
2023-03-20T02:15:58.188Z,10.40
2023-03-20T02:18:27.320Z,10.30
2023-03-20T02:21:40.979Z,10.30
2023-03-20T02:24:49.910Z,10.30
2023-03-20T02:27:34.223Z,10.40
2023-03-20T02:30:47.778Z,10.40
2023-03-20T02:34:00.957Z,10.50
2023-03-20T02:37:15.632Z,10.60
2023-03-20T02:40:00.769Z,10.60
2023-03-20T02:42:38.642Z,10.30
2023-03-20T02:45:20.388Z,10.30
2023-03-20T02:47:57.406Z,10.30
2023-03-20T02:50:37.628Z,10.40
2023-03-20T02:53:25.419Z,10.30
2023-03-20T02:56:10.471Z,10.30
2023-03-20T02:58:47.388Z,10.20
2023-03-20T03:01:22.058Z,10.30
2023-03-20T03:03:57.254Z,10.30
2023-03-20T03:06:31.516Z,10.40
2023-03-20T03:09:05.884Z,10.30
2023-03-20T03:11:43.061Z,10.30
2023-03-20T03:14:19.200Z,10.20
2023-03-20T03:16:50.937Z,10.20
2023-03-20T03:19:27.966Z,10.20
2023-03-20T03:21:56.351Z,10.20
2023-03-20T03:24:40.936Z,10.10
2023-03-20T03:27:20.913Z,10.20
2023-03-20T03:29:56.514Z,10.20
2023-03-20T03:32:31.511Z,10.20
2023-03-20T03:35:02.471Z,10.10
2023-03-20T03:37:46.419Z,10.10
2023-03-20T03:40:26.215Z,10.10
2023-03-20T03:43:04.306Z,10.10
2023-03-20T03:45:38.083Z,10.10
2023-03-20T03:48:13.984Z,10.00
2023-03-20T03:50:48.928Z,10.00
2023-03-20T03:53:23.881Z,9.90
2023-03-20T03:55:58.664Z,9.80
2023-03-20T03:58:33.704Z,9.90
2023-03-20T04:01:05.986Z,9.90
2023-03-20T04:03:40.641Z,9.90
2023-03-20T04:06:13.465Z,10.00
2023-03-20T04:08:42.195Z,10.00
2023-03-20T04:11:16.481Z,10.10
2023-03-20T04:13:48.584Z,10.00
2023-03-20T04:16:18.878Z,10.20
2023-03-20T04:18:47.454Z,10.20
2023-03-20T04:21:16.813Z,10.20
2023-03-20T04:23:45.474Z,10.20
2023-03-20T04:26:13.807Z,10.20
2023-03-20T04:28:42.020Z,10.20
2023-03-20T04:31:12.524Z,10.20
2023-03-20T04:33:42.008Z,10.20
2023-03-20T04:36:11.207Z,10.10
2023-03-20T04:38:39.778Z,10.10
2023-03-20T04:41:09.106Z,10.10
2023-03-20T04:43:37.436Z,10.10
2023-03-20T04:46:06.142Z,10.20
2023-03-20T04:48:35.962Z,10.10
2023-03-20T04:51:04.148Z,10.20
2023-03-20T04:53:32.347Z,10.30
2023-03-20T04:56:02.083Z,10.20
2023-03-20T04:58:30.439Z,10.30
2023-03-20T05:00:58.759Z,10.20
2023-03-20T05:03:27.532Z,10.10
2023-03-20T05:05:57.038Z,10.20
2023-03-20T05:08:25.742Z,10.30
2023-03-20T05:10:54.299Z,10.20
2023-03-20T05:13:22.810Z,10.10
2023-03-20T05:15:51.191Z,10.30
2023-03-20T05:18:19.351Z,10.30
2023-03-20T05:20:47.579Z,10.20
2023-03-20T05:23:17.233Z,10.20
2023-03-20T05:25:46.170Z,10.10
2023-03-20T05:28:14.317Z,10.10
2023-03-20T05:30:42.515Z,10.10
2023-03-20T05:33:11.073Z,10.10
2023-03-20T05:35:39.800Z,10.10
2023-03-20T05:38:08.136Z,10.10
2023-03-20T05:40:37.651Z,10.10
2023-03-20T05:43:06.146Z,10.10
2023-03-20T05:45:34.855Z,10.10
2023-03-20T05:48:03.269Z,10.00
2023-03-20T05:50:31.381Z,10.00
2023-03-20T05:52:59.541Z,10.10
2023-03-20T05:55:27.707Z,10.20
2023-03-20T05:57:57.335Z,10.20
2023-03-20T06:00:26.043Z,10.20
2023-03-20T06:02:54.303Z,10.20
2023-03-20T06:05:22.501Z,10.30
2023-03-20T06:07:50.993Z,10.30
2023-03-20T06:10:20.540Z,10.30
2023-03-20T06:12:48.693Z,10.20
2023-03-20T06:15:19.189Z,10.30
2023-03-20T06:17:47.389Z,10.30
2023-03-20T06:20:16.111Z,10.40
2023-03-20T06:22:44.347Z,10.40
2023-03-20T06:25:12.723Z,10.30
2023-03-20T06:27:40.942Z,10.40
2023-03-20T06:30:11.578Z,10.40
2023-03-20T06:32:41.469Z,10.40
2023-03-20T06:35:10.458Z,10.20
2023-03-20T06:37:38.993Z,10.10
2023-03-20T06:40:09.974Z,10.10
2023-03-20T06:42:38.520Z,10.10
2023-03-20T06:45:08.344Z,10.20
2023-03-20T06:47:36.480Z,10.40
2023-03-20T06:50:07.569Z,10.40
2023-03-20T06:52:36.845Z,10.50
2023-03-20T06:55:05.731Z,10.30
2023-03-20T06:57:34.560Z,10.40
2023-03-20T07:00:04.240Z,10.30
2023-03-20T07:02:33.348Z,10.30
2023-03-20T07:05:01.639Z,10.30
2023-03-20T07:07:31.253Z,10.40
2023-03-20T07:09:59.400Z,10.30
2023-03-20T07:12:28.688Z,10.30
2023-03-20T07:14:57.453Z,10.40
2023-03-20T07:17:25.764Z,10.30
2023-03-20T07:19:54.127Z,10.40
2023-03-20T07:22:26.025Z,10.40
2023-03-20T07:24:55.847Z,10.40
2023-03-20T07:27:24.462Z,10.50
2023-03-20T07:29:52.742Z,10.50
2023-03-20T07:32:21.792Z,10.60
2023-03-20T07:34:50.260Z,10.60
2023-03-20T07:37:18.774Z,10.50
2023-03-20T07:39:47.042Z,10.60
2023-03-20T07:42:17.856Z,10.70
2023-03-20T07:44:46.118Z,10.80
2023-03-20T07:47:14.252Z,10.90
2023-03-20T07:49:42.524Z,10.90
2023-03-20T07:52:11.085Z,10.80
2023-03-20T07:54:39.293Z,10.90
2023-03-20T07:57:07.563Z,11.00
2023-03-20T07:59:37.131Z,11.00
2023-03-20T08:02:05.996Z,11.20
2023-03-20T08:04:34.145Z,11.20
2023-03-20T08:07:02.348Z,11.20
2023-03-20T08:09:30.764Z,11.00
2023-03-20T08:11:59.140Z,11.10
2023-03-20T08:14:27.346Z,11.10
2023-03-20T08:17:12.656Z,11.10
2023-03-20T08:19:42.427Z,11.10
2023-03-20T08:22:11.004Z,11.10
2023-03-20T08:24:39.265Z,11.00
2023-03-20T08:27:07.729Z,11.30
2023-03-20T08:29:36.000Z,11.20
2023-03-20T08:32:06.115Z,11.50
2023-03-20T08:34:34.644Z,11.70
2023-03-20T08:37:05.853Z,11.80
2023-03-20T08:39:34.334Z,12.00
2023-03-20T08:42:02.991Z,12.00
2023-03-20T08:44:31.209Z,12.00
2023-03-20T08:47:00.285Z,12.30
2023-03-20T08:49:30.044Z,12.50
2023-03-20T08:51:58.368Z,12.60
2023-03-20T08:54:26.906Z,12.80
2023-03-20T08:56:55.646Z,13.10
2023-03-20T08:59:23.772Z,13.00
2023-03-20T09:01:51.970Z,12.80
2023-03-20T09:04:20.400Z,12.50
2023-03-20T09:06:51.636Z,12.50
2023-03-20T09:09:21.739Z,12.80
2023-03-20T09:11:50.006Z,13.30
2023-03-20T09:14:18.228Z,13.40
2023-03-20T09:16:47.087Z,13.50
2023-03-20T09:19:15.298Z,13.70
2023-03-20T09:21:43.506Z,13.80
2023-03-20T09:24:13.231Z,13.80
2023-03-20T09:26:42.206Z,13.60
2023-03-20T09:29:10.360Z,13.60
2023-03-20T09:31:38.575Z,13.60
2023-03-20T09:34:06.858Z,13.60
2023-03-20T09:36:35.069Z,13.50
2023-03-20T09:39:04.075Z,13.40
2023-03-20T09:41:49.195Z,13.10
2023-03-20T09:44:45.571Z,13.10
2023-03-20T09:47:22.744Z,12.80
2023-03-20T09:50:10.520Z,12.60
2023-03-20T09:52:46.877Z,12.30
2023-03-20T09:55:20.625Z,12.20
2023-03-20T09:57:57.767Z,12.00
2023-03-20T10:00:30.035Z,11.90
2023-03-20T10:03:04.310Z,11.70
2023-03-20T10:05:38.867Z,11.40
2023-03-20T10:08:16.809Z,11.30
2023-03-20T10:10:56.357Z,11.40
2023-03-20T10:13:45.945Z,11.40
2023-03-20T10:16:29.226Z,11.40
2023-03-20T10:19:11.440Z,11.50
2023-03-20T10:21:46.484Z,11.50
2023-03-20T10:24:23.814Z,11.40
2023-03-20T10:26:56.181Z,11.20
2023-03-20T10:29:39.190Z,11.20
2023-03-20T10:32:17.125Z,11.30
2023-03-20T10:35:08.492Z,11.30
2023-03-20T10:38:01.011Z,11.30
2023-03-20T10:40:36.162Z,11.30
2023-03-20T10:43:15.611Z,11.40
2023-03-20T10:45:50.094Z,11.40
2023-03-20T10:48:27.294Z,11.70
2023-03-20T10:50:59.869Z,11.70
2023-03-20T10:53:35.678Z,11.50
2023-03-20T10:56:11.522Z,11.30
2023-03-20T10:58:42.901Z,11.30
2023-03-20T11:01:12.493Z,11.40
2023-03-20T11:03:41.318Z,11.50
2023-03-20T11:06:20.213Z,11.70
2023-03-20T11:08:53.222Z,11.80
2023-03-20T11:11:27.878Z,12.10
2023-03-20T11:13:57.078Z,12.40
2023-03-20T11:16:32.913Z,12.50
2023-03-20T11:19:09.022Z,12.50
2023-03-20T11:21:47.422Z,12.50
2023-03-20T11:24:38.838Z,12.90
2023-03-20T11:27:10.628Z,12.60
2023-03-20T11:29:40.877Z,12.60
2023-03-20T11:32:27.810Z,12.60
2023-03-20T11:34:57.651Z,12.60
2023-03-20T11:37:29.231Z,12.40
2023-03-20T11:40:08.643Z,12.50
2023-03-20T11:42:37.237Z,12.70
2023-03-20T11:45:16.867Z,12.80
2023-03-20T11:47:52.690Z,12.30
2023-03-20T11:50:34.130Z,12.30
2023-03-20T11:53:04.414Z,12.30
2023-03-20T11:55:35.823Z,12.50
2023-03-20T11:58:10.353Z,12.70
2023-03-20T12:00:42.396Z,12.70
2023-03-20T12:03:41.066Z,12.90
2023-03-20T12:06:16.145Z,12.80
2023-03-20T12:08:52.159Z,12.80
2023-03-20T12:11:44.313Z,12.90
2023-03-20T12:14:28.834Z,12.80
2023-03-20T12:17:47.761Z,12.80
2023-03-20T12:20:30.928Z,12.80
2023-03-20T12:23:13.276Z,13.00
2023-03-20T12:25:52.358Z,13.30
2023-03-20T12:28:30.492Z,13.30
2023-03-20T12:31:25.862Z,13.40
2023-03-20T12:34:04.225Z,13.40
2023-03-20T12:36:39.618Z,13.60
2023-03-20T12:39:14.763Z,13.30
2023-03-20T12:42:00.768Z,13.30
2023-03-20T12:44:45.127Z,13.30
2023-03-20T12:48:01.334Z,13.10
2023-03-20T12:50:36.013Z,13.10
2023-03-20T12:53:26.440Z,13.10
2023-03-20T12:56:07.220Z,13.20
2023-03-20T12:58:45.949Z,13.40
2023-03-20T13:01:20.236Z,13.50
2023-03-20T13:04:06.090Z,13.40
2023-03-20T13:06:50.665Z,13.30
2023-03-20T13:09:57.311Z,13.30
2023-03-20T13:12:41.254Z,12.80
2023-03-20T13:15:35.386Z,12.90
2023-03-20T13:18:16.674Z,12.70
2023-03-20T13:20:53.001Z,13.00
2023-03-20T13:23:30.300Z,13.20
2023-03-20T13:26:13.871Z,13.50
2023-03-20T13:28:57.099Z,13.50
2023-03-20T13:31:41.333Z,13.40
2023-03-20T13:34:29.933Z,13.20
2023-03-20T13:37:23.312Z,13.00
2023-03-20T13:40:05.851Z,12.80
2023-03-20T13:42:43.843Z,12.70
2023-03-20T13:45:34.959Z,12.80
2023-03-20T13:48:21.555Z,12.90
2023-03-20T13:51:02.013Z,12.90
2023-03-20T13:53:45.712Z,12.90
2023-03-20T13:56:30.572Z,12.90
2023-03-20T13:59:31.337Z,13.00
2023-03-20T14:02:15.902Z,13.00
2023-03-20T14:04:45.002Z,12.80
2023-03-20T14:07:33.595Z,12.90
2023-03-20T14:10:36.452Z,13.00
2023-03-20T14:13:13.945Z,13.30
2023-03-20T14:15:53.919Z,13.50
2023-03-20T14:18:26.320Z,13.30
2023-03-20T14:21:00.701Z,12.70
2023-03-20T14:23:37.734Z,12.70
2023-03-20T14:26:10.765Z,12.90
2023-03-20T14:28:58.929Z,12.90
2023-03-20T14:31:34.248Z,12.80
2023-03-20T14:34:16.825Z,12.80
2023-03-20T14:36:58.510Z,12.80
2023-03-20T14:39:46.770Z,12.60
2023-03-20T14:42:35.555Z,12.40
2023-03-20T14:45:42.364Z,12.40
2023-03-20T14:48:27.891Z,12.60
2023-03-20T14:51:17.670Z,12.80
2023-03-20T14:53:56.803Z,13.00
2023-03-20T14:56:32.607Z,13.10
2023-03-20T14:59:06.972Z,13.10
2023-03-20T15:01:49.600Z,13.10
2023-03-20T15:04:37.487Z,13.10
2023-03-20T15:07:14.692Z,13.10
2023-03-20T15:09:47.781Z,12.80
2023-03-20T15:12:20.661Z,12.70
2023-03-20T15:14:56.785Z,12.60
2023-03-20T15:17:28.616Z,12.80
2023-03-20T15:20:19.454Z,12.70
2023-03-20T15:22:54.279Z,12.70
2023-03-20T15:25:29.508Z,12.60
2023-03-20T15:27:58.107Z,12.40
2023-03-20T15:30:28.014Z,12.50
2023-03-20T15:32:57.164Z,12.40
2023-03-20T15:35:28.964Z,12.30
2023-03-20T15:38:06.099Z,12.30
2023-03-20T15:40:50.031Z,12.20
2023-03-20T15:43:24.121Z,12.30
2023-03-20T15:46:02.985Z,12.20
2023-03-20T15:48:38.430Z,12.20
2023-03-20T15:51:11.830Z,12.20
2023-03-20T15:53:44.564Z,12.20
2023-03-20T15:56:18.689Z,12.20
2023-03-20T15:58:52.236Z,12.10
2023-03-20T16:01:23.611Z,12.10
2023-03-20T16:03:54.696Z,12.10
2023-03-20T16:06:26.650Z,12.20
2023-03-20T16:09:00.621Z,12.20
2023-03-20T16:11:39.504Z,12.10
2023-03-20T16:14:13.477Z,12.10
2023-03-20T16:16:42.611Z,12.00
2023-03-20T16:19:15.066Z,12.00
2023-03-20T16:21:51.632Z,11.90
2023-03-20T16:24:26.861Z,12.00
2023-03-20T16:26:56.911Z,11.90
2023-03-20T16:29:29.184Z,11.90
2023-03-20T16:32:03.953Z,11.90
2023-03-20T16:34:36.487Z,11.90
2023-03-20T16:37:24.881Z,11.90
2023-03-20T16:40:16.646Z,11.90
2023-03-20T16:42:46.268Z,11.70
2023-03-20T16:45:26.375Z,11.70
2023-03-20T16:48:32.784Z,11.60
2023-03-20T16:51:07.092Z,11.50
2023-03-20T16:53:45.676Z,11.50
2023-03-20T16:56:18.935Z,11.50
2023-03-20T16:58:48.581Z,11.50
2023-03-20T17:01:21.170Z,11.60
2023-03-20T17:03:53.993Z,11.50
2023-03-20T17:06:38.784Z,11.50
2023-03-20T17:09:26.004Z,11.40
2023-03-20T17:12:04.202Z,11.40
2023-03-20T17:14:34.604Z,11.40
2023-03-20T17:17:02.985Z,11.30
2023-03-20T17:19:34.007Z,11.30
2023-03-20T17:22:05.595Z,11.30
2023-03-20T17:24:35.272Z,11.30
2023-03-20T17:27:03.475Z,11.20
2023-03-20T17:29:31.718Z,11.20
2023-03-20T17:32:00.086Z,11.00
2023-03-20T17:34:28.443Z,11.00
2023-03-20T17:36:59.734Z,11.00
2023-03-20T17:39:27.986Z,11.00
2023-03-20T17:41:57.889Z,11.00
2023-03-20T17:44:26.280Z,10.90
2023-03-20T17:46:58.882Z,10.90
2023-03-20T17:49:28.282Z,11.00
2023-03-20T17:51:57.734Z,10.90
2023-03-20T17:54:26.228Z,10.90
2023-03-20T17:56:54.737Z,10.90
2023-03-20T17:59:28.593Z,10.90
2023-03-20T18:01:57.086Z,10.90
2023-03-20T18:04:25.659Z,10.90
2023-03-20T18:06:53.804Z,10.80
2023-03-20T18:09:23.922Z,10.70
2023-03-20T18:11:52.084Z,10.70
2023-03-20T18:14:20.309Z,10.70
2023-03-20T18:16:50.007Z,10.80
2023-03-20T18:19:26.508Z,10.70
2023-03-20T18:21:54.980Z,10.70
2023-03-20T18:24:23.497Z,10.60
2023-03-20T18:26:53.690Z,10.60
2023-03-20T18:29:22.364Z,10.50
2023-03-20T18:31:52.469Z,10.60
2023-03-20T18:34:21.207Z,10.50
2023-03-20T18:36:49.494Z,10.40
2023-03-20T18:39:23.663Z,10.40
2023-03-20T18:41:52.321Z,10.40
2023-03-20T18:44:20.683Z,10.30
2023-03-20T18:46:48.943Z,10.40
2023-03-20T18:49:19.506Z,10.40
2023-03-20T18:51:47.875Z,10.40
2023-03-20T18:54:16.471Z,10.50
2023-03-20T18:56:45.274Z,10.50
2023-03-20T18:59:14.275Z,10.40
2023-03-20T19:01:42.566Z,10.40
2023-03-20T19:04:11.170Z,10.30
2023-03-20T19:06:40.846Z,10.30
2023-03-20T19:09:10.832Z,10.20
2023-03-20T19:11:39.401Z,10.20
2023-03-20T19:14:07.653Z,10.20
2023-03-20T19:16:37.928Z,10.10
2023-03-20T19:19:09.685Z,10.10
2023-03-20T19:21:37.925Z,10.10
2023-03-20T19:24:09.557Z,10.10
2023-03-20T19:26:39.833Z,10.10
2023-03-20T19:29:10.503Z,10.10
2023-03-20T19:31:38.815Z,10.20
2023-03-20T19:34:07.726Z,10.20
2023-03-20T19:36:39.055Z,10.20
2023-03-20T19:39:13.834Z,10.30
2023-03-20T19:41:42.340Z,10.20
2023-03-20T19:44:10.805Z,10.20
2023-03-20T19:46:41.038Z,10.20
2023-03-20T19:49:19.546Z,10.20
2023-03-20T19:51:48.590Z,10.20
2023-03-20T19:54:18.352Z,10.20
2023-03-20T19:56:46.645Z,10.20
2023-03-20T19:59:16.689Z,10.10
2023-03-20T20:01:47.471Z,10.10
2023-03-20T20:04:16.436Z,10.20
2023-03-20T20:06:47.411Z,10.10
2023-03-20T20:09:18.078Z,10.10
2023-03-20T20:11:46.573Z,10.00
2023-03-20T20:14:15.397Z,10.00
2023-03-20T20:16:45.523Z,10.10
2023-03-20T20:19:13.990Z,10.10
2023-03-20T20:24:32.031Z,10.00
2023-03-20T20:27:15.883Z,9.90
2023-03-20T20:29:48.272Z,9.90
2023-03-20T20:32:16.643Z,9.70
2023-03-20T20:38:28.182Z,9.70
2023-03-20T20:40:28.266Z,9.60
2023-03-20T20:43:01.419Z,9.60
2023-03-20T20:45:32.083Z,9.60
2023-03-20T20:48:01.701Z,9.60
2023-03-20T20:50:33.161Z,9.50
2023-03-20T20:53:01.625Z,9.70
2023-03-20T20:55:31.665Z,9.70
2023-03-20T20:58:01.220Z,9.70
2023-03-20T21:00:48.419Z,9.70
2023-03-20T21:03:17.599Z,9.80
2023-03-20T21:05:45.776Z,9.80
2023-03-20T21:08:15.128Z,9.70
2023-03-20T21:10:45.946Z,9.70
2023-03-20T21:13:14.367Z,9.70
2023-03-20T21:15:43.245Z,9.60
2023-03-20T21:18:11.696Z,9.60
2023-03-20T21:20:39.977Z,9.60
2023-03-20T21:23:08.153Z,9.60
2023-03-20T21:25:40.733Z,9.60
2023-03-20T21:28:11.600Z,9.60
2023-03-20T21:30:49.862Z,9.60
2023-03-20T21:33:25.230Z,9.60
2023-03-20T21:35:54.497Z,9.50
2023-03-20T21:38:58.380Z,9.50
2023-03-20T21:41:12.408Z,9.40
2023-03-20T21:43:43.070Z,9.40
2023-03-20T21:46:46.773Z,9.30
2023-03-20T21:50:12.359Z,9.30
2023-03-20T21:55:11.198Z,9.30
2023-03-20T22:01:16.195Z,9.30
2023-03-20T22:03:10.958Z,9.20
2023-03-20T22:09:30.737Z,9.20
2023-03-20T22:14:56.859Z,9.10
2023-03-20T22:29:03.203Z,9.00
2023-03-20T22:34:28.807Z,9.10
2023-03-20T22:45:05.455Z,9.10
2023-03-20T22:47:35.243Z,9.20
2023-03-20T22:50:05.514Z,9.10
2023-03-20T22:52:48.165Z,9.10
2023-03-20T22:55:18.121Z,9.00
2023-03-20T22:57:59.911Z,8.90
2023-03-20T23:00:34.044Z,9.00
2023-03-20T23:03:29.928Z,8.90
2023-03-20T23:05:52.747Z,8.90
2023-03-20T23:08:21.800Z,9.00
2023-03-20T23:10:51.923Z,8.90
2023-03-20T23:13:22.514Z,8.90
2023-03-20T23:15:51.700Z,8.90
2023-03-20T23:18:20.783Z,8.90
2023-03-20T23:20:49.430Z,9.00
2023-03-20T23:23:18.988Z,9.00
2023-03-20T23:25:47.213Z,9.00
2023-03-20T23:28:15.540Z,9.00
2023-03-20T23:30:51.818Z,9.00
2023-03-20T23:33:24.937Z,8.90
2023-03-20T23:36:12.495Z,8.90
2023-03-20T23:38:46.165Z,8.90
2023-03-20T23:41:14.969Z,8.80
2023-03-20T23:43:43.657Z,8.90
2023-03-20T23:46:12.310Z,8.90
2023-03-20T23:48:40.630Z,8.80
2023-03-20T23:51:09.759Z,8.80
2023-03-20T23:53:38.015Z,8.80
2023-03-20T23:56:09.213Z,8.80
2023-03-20T23:58:41.915Z,8.70
